createdAt,value
2022-08-21T00:12:38.253Z,11.80
2022-08-21T00:16:30.625Z,12.70
2022-08-21T00:20:24.289Z,15.40
2022-08-21T00:24:18.107Z,16.20
2022-08-21T00:47:12.471Z,10.70
2022-08-21T00:51:06.568Z,9.70
2022-08-21T00:54:59.206Z,9.60
2022-08-21T01:10:23.996Z,12.60
2022-08-21T01:13:32.678Z,9.30
2022-08-21T01:16:44.503Z,14.70
2022-08-21T01:20:36.634Z,11.50
2022-08-21T01:23:37.905Z,12.00
2022-08-21T01:27:05.640Z,8.10
2022-08-21T01:31:08.080Z,11.50
2022-08-21T01:34:19.748Z,12.00
2022-08-21T01:38:05.011Z,9.90
2022-08-21T02:24:57.402Z,12.70
2022-08-21T02:28:49.683Z,8.70
2022-08-21T02:32:42.161Z,9.90
2022-08-21T02:44:34.527Z,9.90
2022-08-21T02:48:29.511Z,10.40
2022-08-21T02:52:22.680Z,12.50
2022-08-21T02:56:15.350Z,11.30
2022-08-21T03:00:07.400Z,13.00
2022-08-21T03:15:42.407Z,13.00
2022-08-21T03:19:27.208Z,13.80
2022-08-21T03:23:22.377Z,11.00
2022-08-21T03:27:15.636Z,11.70
2022-08-21T03:46:05.674Z,12.90
2022-08-21T03:49:57.959Z,10.10
2022-08-21T03:53:20.340Z,12.90
2022-08-21T03:57:12.592Z,11.50
2022-08-21T04:01:07.644Z,10.70
2022-08-21T04:04:18.961Z,9.20
2022-08-21T04:08:03.174Z,10.20
2022-08-21T04:11:27.174Z,7.40
2022-08-21T04:15:03.480Z,7.60
2022-08-21T04:18:28.881Z,7.90
2022-08-21T04:22:00.614Z,10.80
2022-08-21T04:29:24.464Z,9.60
2022-08-21T04:32:38.686Z,12.60
2022-08-21T04:40:03.479Z,8.90
2022-08-21T04:43:26.578Z,9.30
2022-08-21T04:54:11.505Z,9.40
2022-08-21T05:03:13.676Z,6.90
2022-08-21T05:06:16.708Z,8.20
2022-08-21T05:09:24.226Z,8.30
2022-08-21T05:12:49.252Z,7.60
2022-08-21T05:15:41.917Z,8.40
2022-08-21T05:19:13.625Z,9.00
2022-08-21T05:22:44.624Z,9.90
2022-08-21T05:26:09.376Z,9.20
2022-08-21T05:29:53.498Z,7.20
2022-08-21T05:33:37.232Z,8.80
2022-08-21T05:37:10.747Z,8.00
2022-08-21T06:17:18.836Z,11.10
2022-08-21T06:20:38.650Z,8.50
2022-08-21T06:23:58.933Z,10.60
2022-08-21T06:27:23.500Z,8.90
2022-08-21T06:30:38.613Z,11.30
2022-08-21T06:36:49.141Z,8.50
2022-08-21T06:40:12.639Z,11.70
2022-08-21T06:43:09.632Z,9.90
2022-08-21T06:46:33.641Z,9.70
2022-08-21T06:49:50.740Z,7.50
2022-08-21T06:52:51.499Z,9.60
2022-08-21T06:56:25.016Z,7.90
2022-08-21T06:59:31.724Z,7.80
2022-08-21T07:02:43.464Z,9.90
2022-08-21T07:05:58.049Z,8.80
2022-08-21T07:09:11.787Z,8.20
2022-08-21T07:12:32.684Z,9.50
2022-08-21T07:16:04.109Z,10.00
2022-08-21T07:22:36.925Z,9.40
2022-08-21T07:32:58.738Z,8.40
2022-08-21T07:36:20.098Z,7.50
2022-08-21T07:39:45.844Z,7.90
2022-08-21T08:22:13.691Z,5.80
2022-08-21T08:25:27.087Z,4.70
2022-08-21T08:28:16.610Z,8.90
2022-08-21T08:31:21.803Z,6.30
2022-08-21T08:34:08.592Z,5.70
2022-08-21T08:37:12.695Z,9.10
2022-08-21T08:43:18.569Z,5.60
2022-08-21T08:46:01.190Z,5.30
2022-08-21T08:49:35.563Z,6.60
2022-08-21T08:52:35.640Z,8.60
2022-08-21T08:55:37.884Z,5.30
2022-08-21T08:58:44.998Z,7.50
2022-08-21T09:01:23.929Z,8.60
2022-08-21T09:04:20.257Z,7.10
2022-08-21T09:07:40.849Z,6.20
2022-08-21T09:10:57.805Z,5.90
2022-08-21T09:14:03.707Z,5.20
2022-08-21T09:17:00.132Z,5.90
2022-08-21T09:20:09.139Z,7.00
2022-08-21T09:22:52.818Z,4.00
2022-08-21T09:25:50.265Z,6.30
2022-08-21T09:28:42.490Z,5.90
2022-08-21T09:31:34.297Z,6.10
2022-08-21T09:34:25.788Z,5.70
2022-08-21T09:37:00.841Z,5.10
2022-08-21T09:39:45.571Z,5.90
2022-08-21T09:42:51.868Z,5.10
2022-08-21T09:45:25.194Z,4.40
2022-08-21T09:48:26.238Z,6.10
2022-08-21T09:51:20.040Z,6.20
2022-08-21T09:54:24.578Z,4.10
2022-08-21T09:57:23.143Z,4.20
2022-08-21T09:59:53.347Z,4.70
2022-08-21T10:02:51.955Z,5.60
2022-08-21T10:05:28.657Z,5.30
2022-08-21T10:07:59.407Z,7.20
2022-08-21T10:10:39.063Z,5.00
2022-08-21T10:13:23.435Z,6.20
2022-08-21T10:16:38.295Z,5.80
2022-08-21T10:19:24.924Z,5.90
2022-08-21T10:22:42.250Z,6.10
2022-08-21T10:25:22.767Z,5.40
2022-08-21T10:28:14.676Z,7.20
2022-08-21T10:31:11.043Z,5.40
2022-08-21T10:34:01.715Z,5.30
2022-08-21T10:37:10.011Z,5.50
2022-08-21T10:39:59.222Z,6.80
2022-08-21T10:42:59.905Z,4.90
2022-08-21T10:45:43.863Z,5.80
2022-08-21T10:48:46.992Z,5.80
2022-08-21T10:51:49.041Z,6.20
2022-08-21T10:54:49.582Z,6.20
2022-08-21T10:57:42.536Z,5.60
2022-08-21T11:00:25.866Z,5.80
2022-08-21T11:03:35.281Z,6.20
2022-08-21T11:06:23.454Z,7.00
2022-08-21T11:09:16.212Z,7.50
2022-08-21T11:12:12.749Z,5.60
2022-08-21T11:15:29.235Z,7.40
2022-08-21T11:18:31.280Z,6.60
2022-08-21T11:21:28.698Z,7.00
2022-08-21T11:24:34.965Z,7.10
2022-08-21T11:27:25.957Z,8.00
2022-08-21T11:30:00.217Z,6.40
2022-08-21T11:32:48.643Z,6.30
2022-08-21T11:36:15.764Z,5.90
2022-08-21T11:39:23.454Z,6.10
2022-08-21T11:42:36.401Z,8.30
2022-08-21T11:45:36.676Z,5.90
2022-08-21T11:49:15.322Z,6.90
2022-08-21T11:52:06.022Z,5.90
2022-08-21T11:54:55.611Z,8.50
2022-08-21T11:58:06.947Z,6.10
2022-08-21T12:00:45.210Z,7.80
2022-08-21T12:03:27.389Z,7.80
2022-08-21T12:06:10.253Z,11.30
2022-08-21T12:08:45.267Z,7.00
2022-08-21T12:11:20.710Z,10.00
2022-08-21T12:14:16.231Z,5.90
2022-08-21T12:16:49.786Z,7.00
2022-08-21T12:19:36.128Z,7.90
2022-08-21T12:22:06.672Z,5.90
2022-08-21T12:24:44.847Z,9.40
2022-08-21T12:27:31.658Z,8.90
2022-08-21T12:30:08.979Z,7.70
2022-08-21T12:35:26.046Z,5.20
2022-08-21T12:38:25.421Z,8.00
2022-08-21T12:41:03.421Z,8.30
2022-08-21T12:43:48.682Z,8.20
2022-08-21T12:46:29.099Z,7.40
2022-08-21T12:49:05.609Z,8.90
2022-08-21T12:51:57.606Z,7.00
2022-08-21T12:54:40.428Z,4.60
2022-08-21T12:57:19.857Z,6.70
2022-08-21T13:00:15.020Z,7.80
2022-08-21T13:02:50.069Z,7.30
2022-08-21T13:05:34.783Z,6.60
2022-08-21T13:08:09.552Z,6.30
2022-08-21T13:10:42.421Z,8.30
2022-08-21T13:13:28.355Z,5.60
2022-08-21T13:16:07.061Z,5.80
2022-08-21T13:19:06.744Z,8.00
2022-08-21T13:21:48.637Z,8.60
2022-08-21T13:24:42.751Z,9.00
2022-08-21T13:27:29.060Z,8.40
2022-08-21T13:30:14.967Z,8.60
2022-08-21T13:32:50.054Z,7.50
2022-08-21T13:35:24.152Z,6.90
2022-08-21T13:37:56.588Z,9.60
2022-08-21T13:40:42.865Z,9.70
2022-08-21T13:43:20.974Z,8.70
2022-08-21T13:45:56.258Z,9.50
2022-08-21T13:48:36.749Z,11.70
2022-08-21T13:51:16.968Z,9.50
2022-08-21T13:53:53.554Z,8.00
2022-08-21T13:56:32.985Z,9.40
2022-08-21T13:59:06.677Z,8.20
2022-08-21T14:01:52.674Z,10.60
2022-08-21T14:04:39.331Z,8.40
2022-08-21T14:07:30.487Z,9.50
2022-08-21T14:10:29.461Z,10.30
2022-08-21T14:13:04.459Z,7.60
2022-08-21T14:15:40.401Z,11.10
2022-08-21T14:18:20.938Z,11.20
2022-08-21T14:20:50.804Z,10.20
2022-08-21T14:23:28.669Z,10.30
2022-08-21T14:26:03.100Z,12.40
2022-08-21T14:28:42.316Z,10.30
2022-08-21T14:32:03.330Z,8.40
2022-08-21T14:34:47.629Z,10.40
2022-08-21T14:37:20.874Z,10.80
2022-08-21T14:39:53.013Z,9.70
2022-08-21T14:42:23.473Z,12.20
2022-08-21T14:44:57.384Z,9.30
2022-08-21T14:47:27.749Z,9.00
2022-08-21T14:50:00.394Z,9.30
2022-08-21T14:52:31.117Z,12.40
2022-08-21T14:55:01.407Z,8.80
2022-08-21T14:58:25.027Z,13.20
2022-08-21T15:01:30.238Z,11.10
2022-08-21T15:04:02.375Z,8.80
2022-08-21T15:06:48.406Z,10.10
2022-08-21T15:09:18.401Z,9.50
2022-08-21T15:11:52.856Z,9.10
2022-08-21T15:14:30.179Z,9.00
2022-08-21T15:17:07.301Z,11.50
2022-08-21T15:19:46.810Z,10.60
2022-08-21T15:23:02.355Z,12.90
2022-08-21T15:26:26.036Z,9.90
2022-08-21T15:29:57.723Z,11.10
2022-08-21T15:32:48.752Z,12.20
2022-08-21T15:35:54.306Z,13.90
2022-08-21T15:39:08.598Z,12.20
2022-08-21T15:42:26.533Z,11.20
2022-08-21T15:45:55.772Z,13.50
2022-08-21T15:48:47.328Z,13.90
2022-08-21T15:51:27.734Z,15.00
2022-08-21T15:54:06.373Z,9.20
2022-08-21T15:56:54.538Z,10.70
2022-08-21T15:59:40.766Z,10.60
2022-08-21T16:02:45.865Z,11.00
2022-08-21T16:05:53.835Z,13.60
2022-08-21T16:08:44.253Z,14.30
2022-08-21T16:11:21.828Z,10.10
2022-08-21T16:14:12.783Z,8.70
2022-08-21T16:16:52.604Z,12.80
2022-08-21T16:20:14.063Z,13.30
2022-08-21T16:22:54.668Z,12.80
2022-08-21T16:25:48.828Z,11.90
2022-08-21T16:28:46.558Z,10.80
2022-08-21T16:31:28.781Z,10.60
2022-08-21T16:33:59.982Z,7.80
2022-08-21T16:36:35.076Z,10.80
2022-08-21T16:39:11.429Z,14.70
2022-08-21T16:41:53.219Z,8.80
2022-08-21T16:44:24.221Z,13.40
2022-08-21T16:47:27.258Z,12.00
2022-08-21T16:50:51.054Z,11.70
2022-08-21T16:53:26.841Z,10.00
2022-08-21T16:56:16.417Z,11.90
2022-08-21T16:58:52.575Z,12.70
2022-08-21T17:01:52.082Z,11.00
2022-08-21T17:04:28.671Z,12.60
2022-08-21T17:06:59.317Z,9.90
2022-08-21T17:09:41.317Z,10.50
2022-08-21T17:12:17.481Z,9.30
2022-08-21T17:15:08.126Z,15.90
2022-08-21T17:17:48.017Z,12.20
2022-08-21T17:20:18.982Z,10.40
2022-08-21T17:23:01.186Z,17.90
2022-08-21T17:25:42.625Z,13.60
2022-08-21T17:28:39.149Z,11.90
2022-08-21T17:31:18.513Z,13.00
2022-08-21T17:34:03.698Z,11.40
2022-08-21T17:36:39.678Z,11.30
2022-08-21T17:39:35.727Z,9.90
2022-08-21T17:42:14.073Z,13.40
2022-08-21T17:45:11.679Z,16.00
2022-08-21T17:47:51.162Z,12.30
2022-08-21T17:50:33.774Z,9.20
2022-08-21T17:53:07.277Z,10.30
2022-08-21T17:55:41.925Z,15.00
2022-08-21T17:58:36.136Z,9.90
2022-08-21T18:01:39.505Z,12.40
2022-08-21T18:04:30.773Z,12.20
2022-08-21T18:07:25.320Z,11.70
